Reklama

Seznam meteostanic a jejich METAR

Vyhledat místa podle abecedy:
A B C D E F G H I J K L M N O P Q R S T U V W X Y Z

Filtrovat:

ID stanice:
a/nebo
Název místa (fulltext):
 
Místo (ID)Naposledy načteno 
Iasi (LRIA) 19.11.2018 01:00 UTC Zobrazit METAR
LRIA 190100Z AUTO 03004KT 9999 OVC013/// 01/M02 Q1021
Ibiza (LEIB) 19.11.2018 00:00 UTC Zobrazit METAR
LEIB 190000Z AUTO 06010KT 030V090 8000 RA FEW014/// SCT021/// 16/12 Q1003
Innsbruck (LOWI) 19.11.2018 00:50 UTC Zobrazit METAR
LOWI 190050Z AUTO VRB01KT 9000 FEW010 BKN015 01/M01 Q1013
Iraklion (LGIR) 19.11.2018 00:50 UTC Zobrazit METAR
LGIR 190050Z 16015KT 9999 FEW020 SCT080 17/15 Q1009 NOSIG
Isafjordur (BIIS) 18.11.2018 16:50 UTC Zobrazit METAR
BIIS 181650Z 22010KT 9999 BKN035 OVC045 08/02 Q1014
Isla de Pascua (SCIP) 19.11.2018 01:00 UTC Zobrazit METAR
SCIP 190100Z 13003KT 070V210 9999 BKN025 23/17 Q1022 NOSIG
Islamabad (OPRN) 19.11.2018 01:00 UTC Zobrazit METAR
OPRN 190100Z 00000KT 7000 HZ NSC 12/08 Q1018 NOSIG RMK A3008
Istanbul (LTBA) 19.11.2018 00:50 UTC Zobrazit METAR
LTBA 190050Z 11008KT 9999 SCT035 BKN080 14/12 Q1011 RESHRA NOSIG
Ivano-Frankivs'k (UKLI) Zatím nenačteno  
Reklama

Počasí na Váš email

Emaily jsou bez reklamy a bez spamu



Odhlásit newsletter

Reklama


Lunární kalendář

  • 23.11.
  • 30.11.
  • 07.12.
  • 15.12.



Reklama


Reklama
Povinné ručení
Reklama



Reklama